Time;durP1;ratioP1;P1;durP2;ratioP2;P2;SDS_P1;SDS_P2;PMS_P1;PMS_P2;Temp;Humidity;BMP_temperature;BMP_pressure;BME280_temperature;BME280_humidity;BME280_pressure;Samples;Min_cycle;Max_cycle;Signal;HPM_P1;HPM_P2
2023/10/06 00:00:26;;;;;;;11.90;6.13;;;;;;;10.40;100.00;99159.38;5117390;28;20199;-73
2023/10/06 00:02:54;;;;;;;10.23;5.87;;;;;;;10.39;100.00;99163.88;5117415;28;20191;-73
2023/10/06 00:05:21;;;;;;;12.73;6.30;;;;;;;10.43;100.00;99161.66;5117061;27;20227;-73
2023/10/06 00:07:50;;;;;;;11.07;5.83;;;;;;;10.50;100.00;99160.69;5116743;28;20223;-73
2023/10/06 00:10:20;;;;;;;11.33;6.23;;;;;;;10.41;100.00;99161.03;5117170;28;20213;-73
2023/10/06 00:12:58;;;;;;;11.13;6.33;;;;;;;10.45;100.00;99165.75;5117113;28;20209;-73
2023/10/06 00:15:38;;;;;;;13.60;6.47;;;;;;;10.47;100.00;99169.06;5116847;28;20203;-73
2023/10/06 00:18:09;;;;;;;14.83;6.60;;;;;;;10.56;100.00;99167.09;5116953;28;20218;-73
2023/10/06 00:20:42;;;;;;;10.47;6.20;;;;;;;10.51;100.00;99172.16;5117039;28;20287;-73
2023/10/06 00:23:14;;;;;;;11.83;6.73;;;;;;;10.52;100.00;99168.47;5116958;28;20248;-73
2023/10/06 00:25:43;;;;;;;11.03;6.40;;;;;;;10.42;100.00;99168.78;5116900;28;20301;-73
2023/10/06 00:28:19;;;;;;;10.03;5.97;;;;;;;10.48;100.00;99169.88;5116557;28;20700;-73
2023/10/06 00:30:47;;;;;;;13.60;7.07;;;;;;;10.44;100.00;99165.94;5116893;28;20194;-73
2023/10/06 00:33:15;;;;;;;13.67;6.80;;;;;;;10.58;100.00;99162.38;5116441;28;20239;-73
2023/10/06 00:35:44;;;;;;;14.30;7.03;;;;;;;10.55;100.00;99170.78;5116760;28;20280;-73
2023/10/06 00:38:16;;;;;;;13.07;7.23;;;;;;;10.46;100.00;99163.94;5116619;28;20231;-73
2023/10/06 00:40:48;;;;;;;13.60;6.37;;;;;;;10.48;100.00;99172.53;5116685;28;20210;-73
2023/10/06 00:43:16;;;;;;;14.63;6.77;;;;;;;10.39;100.00;99163.88;5116148;27;20234;-73
2023/10/06 00:45:44;;;;;;;12.90;6.60;;;;;;;10.35;100.00;99162.63;5116418;28;20230;-73
2023/10/06 00:48:14;;;;;;;12.70;7.17;;;;;;;10.39;100.00;99163.03;5116286;28;20227;-73
2023/10/06 00:50:44;;;;;;;13.03;6.83;;;;;;;10.38;100.00;99150.78;5115364;28;20202;-73
2023/10/06 00:53:13;;;;;;;11.23;7.03;;;;;;;10.50;100.00;99151.91;5116449;28;20204;-73
2023/10/06 00:55:41;;;;;;;11.83;7.20;;;;;;;10.46;100.00;99143.47;5116340;28;20203;-73
2023/10/06 00:58:11;;;;;;;13.33;7.17;;;;;;;10.43;100.00;99145.69;5116200;28;20223;-73
2023/10/06 01:00:39;;;;;;;11.83;6.50;;;;;;;10.37;100.00;99149.13;5116308;28;20230;-73
2023/10/06 01:03:14;;;;;;;11.93;6.63;;;;;;;10.17;100.00;99142.78;5116234;28;20200;-73
2023/10/06 01:05:44;;;;;;;11.47;6.97;;;;;;;10.15;100.00;99144.84;5115736;28;20301;-73
2023/10/06 01:08:11;;;;;;;12.60;6.53;;;;;;;10.22;100.00;99143.03;5116106;28;20258;-73
2023/10/06 01:10:40;;;;;;;11.87;6.57;;;;;;;10.16;100.00;99135.84;5116041;28;20235;-73
2023/10/06 01:13:12;;;;;;;14.27;6.73;;;;;;;10.17;100.00;99137.47;5115655;28;20293;-73
2023/10/06 01:15:48;;;;;;;10.87;6.53;;;;;;;10.07;100.00;99132.50;5115767;28;20211;-73
2023/10/06 01:18:23;;;;;;;13.60;7.17;;;;;;;10.17;100.00;99137.47;5115589;28;20230;-73
2023/10/06 01:20:49;;;;;;;12.43;7.17;;;;;;;10.14;100.00;99138.69;5115913;28;20226;-73
2023/10/06 01:23:21;;;;;;;12.87;6.70;;;;;;;10.09;100.00;99134.97;5115534;28;20574;-73
2023/10/06 01:25:50;;;;;;;13.93;6.93;;;;;;;10.05;100.00;99131.84;5116582;28;20207;-73
2023/10/06 01:28:18;;;;;;;15.07;7.00;;;;;;;10.07;100.00;99139.63;5115596;28;20223;-73
2023/10/06 01:30:45;;;;;;;12.00;6.50;;;;;;;10.06;100.00;99133.53;5115604;28;20210;-73
2023/10/06 01:33:11;;;;;;;12.03;6.73;;;;;;;10.05;100.00;99139.00;5115563;28;20248;-73
2023/10/06 01:35:42;;;;;;;12.63;7.37;;;;;;;10.08;100.00;99130.66;5115471;28;20284;-73
2023/10/06 01:38:19;;;;;;;11.63;6.43;;;;;;;9.98;100.00;99122.97;5115444;28;20284;-73
2023/10/06 01:40:50;;;;;;;12.80;7.20;;;;;;;9.99;100.00;99134.41;5115492;28;20236;-73
2023/10/06 01:43:22;;;;;;;11.90;7.03;;;;;;;10.09;100.00;99132.31;5115161;28;20227;-73
2023/10/06 01:45:52;;;;;;;14.87;7.73;;;;;;;9.99;100.00;99123.78;5115009;28;20251;-73
2023/10/06 01:48:24;;;;;;;17.77;8.10;;;;;;;9.97;100.00;99123.16;5115243;28;20227;-73
2023/10/06 01:50:54;;;;;;;16.97;8.53;;;;;;;9.90;100.00;99117.78;5115291;28;20194;-73
2023/10/06 01:53:20;;;;;;;16.03;8.50;;;;;;;9.85;100.00;99125.50;5115208;28;20293;-73
2023/10/06 01:55:52;;;;;;;15.70;8.20;;;;;;;9.86;100.00;99129.78;5115097;28;20195;-73
2023/10/06 01:58:19;;;;;;;14.53;7.97;;;;;;;9.78;100.00;99129.91;5114922;28;20231;-73
2023/10/06 02:00:48;;;;;;;15.27;8.00;;;;;;;9.89;100.00;99124.09;5114704;28;20203;-73
2023/10/06 02:03:21;;;;;;;11.40;7.20;;;;;;;9.90;100.00;99125.75;5114746;28;20697;-73
2023/10/06 02:05:48;;;;;;;15.03;7.97;;;;;;;9.87;100.00;99125.31;5114616;28;20578;-73
2023/10/06 02:08:21;;;;;;;13.37;7.50;;;;;;;9.72;100.00;99125.34;5114436;28;20229;-73
2023/10/06 02:10:47;;;;;;;12.40;7.57;;;;;;;9.85;100.00;99116.69;5115200;28;20199;-73
2023/10/06 02:13:21;;;;;;;13.90;7.73;;;;;;;9.81;100.00;99118.91;5114534;27;20207;-73
2023/10/06 02:15:47;;;;;;;12.93;7.17;;;;;;;9.75;100.00;99110.88;5114690;28;20293;-73
2023/10/06 02:18:13;;;;;;;11.00;6.97;;;;;;;9.75;100.00;99110.88;5114690;28;20276;-73
2023/10/06 02:20:46;;;;;;;15.90;7.23;;;;;;;9.76;100.00;99112.50;5114689;28;20207;-73
2023/10/06 02:23:13;;;;;;;12.83;7.30;;;;;;;9.77;100.00;99111.53;5114364;28;20215;-73
2023/10/06 02:25:40;;;;;;;11.83;7.60;;;;;;;9.75;100.00;99117.00;5114593;28;20250;-73
2023/10/06 02:28:08;;;;;;;12.07;7.20;;;;;;;9.70;100.00;99119.41;5114757;27;20223;-73
2023/10/06 02:30:37;;;;;;;11.67;7.03;;;;;;;9.75;100.00;99109.06;5114240;28;20199;-73
2023/10/06 02:33:07;;;;;;;11.37;7.40;;;;;;;9.76;100.00;99112.50;5114430;28;20217;-73
2023/10/06 02:35:35;;;;;;;11.13;7.23;;;;;;;9.78;100.00;99113.16;5114501;28;20199;-73
2023/10/06 02:38:05;;;;;;;14.20;7.63;;;;;;;9.76;100.00;99104.53;5114305;28;20230;-73
2023/10/06 02:40:44;;;;;;;12.23;7.73;;;;;;;9.75;100.00;99111.69;5114140;28;20203;-73
2023/10/06 02:43:16;;;;;;;11.80;7.87;;;;;;;9.78;100.00;99113.16;5113982;27;20187;-73
2023/10/06 02:45:43;;;;;;;14.63;8.07;;;;;;;9.72;100.00;99098.78;5114142;28;20616;-73
2023/10/06 02:48:16;;;;;;;14.20;7.83;;;;;;;9.73;100.00;99102.28;5114189;28;20231;-73
2023/10/06 02:50:45;;;;;;;11.03;7.70;;;;;;;9.70;100.00;99102.66;5113908;28;20282;-73
2023/10/06 02:53:14;;;;;;;12.10;7.70;;;;;;;9.64;100.00;99114.84;5114244;28;20220;-73
2023/10/06 02:55:44;;;;;;;11.53;7.57;;;;;;;9.60;100.00;99113.56;5113813;28;20239;-73
2023/10/06 02:58:23;;;;;;;15.03;8.20;;;;;;;9.59;100.00;99116.44;5114038;28;20226;-73
2023/10/06 03:00:51;;;;;;;12.87;8.00;;;;;;;9.49;100.00;99110.56;5114159;28;20252;-73
2023/10/06 03:03:21;;;;;;;11.40;7.83;;;;;;;9.49;100.00;99107.91;5114069;28;20210;-73
2023/10/06 03:05:51;;;;;;;15.03;7.57;;;;;;;9.50;100.00;99114.88;5113914;28;20253;-73
2023/10/06 03:08:20;;;;;;;12.37;8.07;;;;;;;9.43;100.00;99109.50;5113950;28;20223;-73
2023/10/06 03:10:48;;;;;;;12.60;7.70;;;;;;;9.46;100.00;99106.44;5114227;28;20199;-73
2023/10/06 03:13:24;;;;;;;14.03;7.87;;;;;;;9.48;100.00;99103.63;5118318;28;20238;-73
2023/10/06 03:15:51;;;;;;;12.33;8.07;;;;;;;9.52;100.00;99102.25;5117539;27;20264;-73
2023/10/06 03:18:18;;;;;;;10.93;7.60;;;;;;;9.55;100.00;99099.22;5118102;28;20229;-73
2023/10/06 03:20:48;;;;;;;12.23;7.87;;;;;;;9.59;100.00;99108.47;5118198;28;20203;-73
2023/10/06 03:23:26;;;;;;;12.13;7.90;;;;;;;9.58;100.00;99112.09;5117742;28;20203;-73
2023/10/06 03:25:56;;;;;;;11.17;7.87;;;;;;;9.60;100.00;99104.78;5118012;28;20206;-73
2023/10/06 03:28:31;;;;;;;12.37;8.07;;;;;;;9.58;100.00;99101.47;5118873;28;20313;-73
2023/10/06 03:31:02;;;;;;;15.70;8.10;;;;;;;9.56;100.00;99103.50;5117652;28;20286;-73
2023/10/06 03:33:29;;;;;;;12.77;7.50;;;;;;;9.58;100.00;99114.75;5117973;28;20191;-73
2023/10/06 03:35:57;;;;;;;12.60;8.23;;;;;;;9.58;100.00;99101.47;5117692;28;20568;-73
2023/10/06 03:38:35;;;;;;;12.70;8.23;;;;;;;9.67;100.00;99108.31;5117755;28;20321;-73
2023/10/06 03:41:18;;;;;;;14.17;8.20;;;;;;;9.66;100.00;99117.31;5117580;28;20248;-73
2023/10/06 03:43:51;;;;;;;13.73;8.43;;;;;;;9.50;100.00;99117.53;5117514;28;20188;-73
2023/10/06 03:46:19;;;;;;;9.90;7.23;;;;;;;9.58;100.00;99112.94;5117354;28;20216;-73
2023/10/06 03:48:49;;;;;;;10.43;7.93;;;;;;;9.54;100.00;99116.13;5117486;27;20227;-73
2023/10/06 03:51:18;;;;;;;11.37;7.83;;;;;;;9.46;100.00;99106.44;5117260;27;20689;-73
2023/10/06 03:53:48;;;;;;;13.30;8.27;;;;;;;9.41;100.00;99106.19;5117412;28;20207;-73
2023/10/06 03:56:17;;;;;;;13.00;7.40;;;;;;;9.46;100.00;99106.44;5117098;28;20666;-73
2023/10/06 03:58:45;;;;;;;10.77;7.57;;;;;;;9.48;100.00;99115.06;5117301;28;20274;-73
2023/10/06 04:01:19;;;;;;;12.73;8.10;;;;;;;9.51;100.00;99098.75;5117227;28;20207;-73
2023/10/06 04:03:47;;;;;;;12.13;8.10;;;;;;;9.48;100.00;99093.00;5117281;28;20190;-73
2023/10/06 04:06:15;;;;;;;12.07;7.73;;;;;;;9.43;100.00;99092.75;5116950;28;20227;-73
2023/10/06 04:08:44;;;;;;;10.43;7.57;;;;;;;9.45;100.00;99090.72;5116997;28;20309;-73
2023/10/06 04:11:14;;;;;;;11.80;7.90;;;;;;;9.47;100.00;99094.00;5117070;28;20265;-73
2023/10/06 04:13:40;;;;;;;10.67;7.63;;;;;;;9.39;100.00;99081.69;5116902;28;20696;-73
2023/10/06 04:16:07;;;;;;;10.43;7.30;;;;;;;9.33;100.00;99092.22;5116903;28;20576;-73
2023/10/06 04:18:33;;;;;;;11.37;7.57;;;;;;;9.28;100.00;99084.00;5116341;28;20593;-73
2023/10/06 04:21:02;;;;;;;10.73;7.80;;;;;;;9.25;100.00;99087.84;5116810;28;20199;-73
2023/10/06 04:23:29;;;;;;;10.70;7.60;;;;;;;9.25;100.00;99092.31;5116328;28;20203;-73
2023/10/06 04:25:56;;;;;;;10.40;7.03;;;;;;;9.25;100.00;99094.97;5116553;28;20241;-73
2023/10/06 04:28:25;;;;;;;10.13;6.97;;;;;;;9.27;100.00;99091.13;5116179;28;20681;-73
2023/10/06 04:30:51;;;;;;;9.67;7.53;;;;;;;9.28;100.00;99084.00;5116638;28;20234;-73
2023/10/06 04:33:19;;;;;;;11.07;7.37;;;;;;;9.21;100.00;99081.25;5116373;28;20201;-73
2023/10/06 04:35:49;;;;;;;10.90;7.77;;;;;;;9.18;100.00;99083.44;5116560;28;20224;-73
2023/10/06 04:38:15;;;;;;;10.20;7.33;;;;;;;9.16;100.00;99080.16;5116166;28;20227;-73
2023/10/06 04:40:42;;;;;;;11.53;8.00;;;;;;;9.16;100.00;99081.00;5116166;27;20209;-73
2023/10/06 04:43:08;;;;;;;11.83;7.60;;;;;;;9.19;100.00;99077.16;5116229;28;20733;-73
2023/10/06 04:45:38;;;;;;;13.80;9.03;;;;;;;9.12;100.00;99082.38;5116885;28;20214;-73
2023/10/06 04:48:07;;;;;;;10.97;7.63;;;;;;;9.18;100.00;99078.97;5116130;28;20226;-73
2023/10/06 04:50:35;;;;;;;14.20;8.53;;;;;;;9.18;100.00;99078.97;5116139;28;20203;-73
2023/10/06 04:53:05;;;;;;;12.17;8.30;;;;;;;9.14;100.00;99084.84;5115678;28;20210;-73
2023/10/06 04:55:32;;;;;;;13.30;8.43;;;;;;;9.21;100.00;99080.41;5115956;28;20214;-73
2023/10/06 04:57:59;;;;;;;9.90;7.87;;;;;;;9.23;100.00;99079.22;5115692;28;20234;-73
2023/10/06 05:00:27;;;;;;;13.47;8.20;;;;;;;9.20;100.00;99079.63;5115546;28;20215;-73
2023/10/06 05:02:53;;;;;;;12.43;8.13;;;;;;;9.14;100.00;99076.88;5115680;28;20206;-73
2023/10/06 05:05:22;;;;;;;15.27;8.57;;;;;;;9.07;100.00;99083.91;5115698;28;20238;-73
2023/10/06 05:07:50;;;;;;;12.53;8.13;;;;;;;9.12;100.00;99074.41;5115715;28;20222;-73
2023/10/06 05:10:21;;;;;;;10.83;7.70;;;;;;;9.10;100.00;99073.75;5114978;28;20578;-73
2023/10/06 05:12:50;;;;;;;13.43;8.17;;;;;;;9.08;100.00;99069.63;5115571;27;20229;-73
2023/10/06 05:15:23;;;;;;;13.03;8.37;;;;;;;9.06;100.00;99066.38;5114922;28;20314;-73
2023/10/06 05:17:56;;;;;;;13.10;7.97;;;;;;;8.99;100.00;99068.94;5115323;28;20242;-73
2023/10/06 05:20:43;;;;;;;11.83;7.47;;;;;;;9.00;100.00;99064.47;5114962;28;20239;-73
2023/10/06 05:23:11;;;;;;;12.30;8.20;;;;;;;9.04;100.00;99071.00;5114913;28;20207;-73
2023/10/06 05:25:38;;;;;;;14.07;7.90;;;;;;;9.07;100.00;99073.31;5115385;28;20203;-73
2023/10/06 05:28:07;;;;;;;12.70;8.60;;;;;;;8.92;100.00;99075.16;5114999;28;20223;-73
2023/10/06 05:30:36;;;;;;;14.83;8.43;;;;;;;8.94;100.00;99078.44;5115377;28;20351;-73
2023/10/06 05:33:03;;;;;;;12.23;8.17;;;;;;;8.96;100.00;99084.41;5115050;28;20205;-73
2023/10/06 05:35:38;;;;;;;15.23;8.13;;;;;;;8.99;100.00;99087.50;5114418;28;20203;-73
2023/10/06 05:38:07;;;;;;;14.27;8.20;;;;;;;8.98;100.00;99095.63;5115201;28;20218;-73
2023/10/06 05:40:34;;;;;;;13.93;8.23;;;;;;;9.02;100.00;99091.59;5114962;28;20203;-73
2023/10/06 05:43:00;;;;;;;14.80;8.53;;;;;;;9.03;100.00;99090.59;5115141;28;20230;-73
2023/10/06 05:45:29;;;;;;;12.30;8.33;;;;;;;9.15;100.00;99102.41;5114609;28;20572;-73
2023/10/06 05:47:58;;;;;;;10.73;7.87;;;;;;;9.15;100.00;99097.88;5114723;28;20591;-73
2023/10/06 05:50:29;;;;;;;9.73;7.80;;;;;;;8.99;100.00;99107.88;5114761;28;20666;-73
2023/10/06 05:53:01;;;;;;;11.67;8.23;;;;;;;8.95;100.00;99103.94;5114478;28;20666;-73
2023/10/06 05:55:31;;;;;;;13.47;8.07;;;;;;;9.04;100.00;99116.94;5115619;28;20199;-73
2023/10/06 05:58:01;;;;;;;11.97;7.53;;;;;;;9.11;100.00;99125.00;5114399;28;20220;-73
2023/10/06 06:00:43;;;;;;;12.27;8.37;;;;;;;9.16;100.00;99126.09;5114637;28;20558;-73
2023/10/06 06:03:11;;;;;;;13.17;7.73;;;;;;;9.17;100.00;99126.91;5114665;28;20549;-73
2023/10/06 06:05:43;;;;;;;10.77;8.20;;;;;;;9.24;100.00;99117.22;5114767;28;20646;-73
2023/10/06 06:08:10;;;;;;;12.10;8.27;;;;;;;9.23;100.00;99116.38;5114579;28;20224;-73
2023/10/06 06:10:37;;;;;;;13.47;8.43;;;;;;;9.22;100.00;99117.38;5114351;28;20203;-73
2023/10/06 06:13:04;;;;;;;11.90;8.33;;;;;;;9.22;100.00;99121.84;5114317;28;20209;-73
2023/10/06 06:15:31;;;;;;;11.80;8.30;;;;;;;9.29;100.00;99118.31;5114001;28;20222;-73
2023/10/06 06:17:58;;;;;;;11.37;7.50;;;;;;;9.26;100.00;99116.00;5114224;27;20254;-73
2023/10/06 06:20:29;;;;;;;12.13;7.83;;;;;;;9.27;100.00;99119.47;5114409;28;20199;-73
2023/10/06 06:22:58;;;;;;;13.57;7.67;;;;;;;9.28;100.00;99121.13;5114287;28;20606;-73
2023/10/06 06:25:26;;;;;;;11.50;7.37;;;;;;;9.36;100.00;99127.16;5114310;28;20203;-73
2023/10/06 06:27:54;;;;;;;11.40;8.13;;;;;;;9.31;100.00;99120.75;5113351;28;20637;-73
2023/10/06 06:30:23;;;;;;;11.73;7.90;;;;;;;9.32;100.00;99130.38;5114326;28;20210;-73
2023/10/06 06:32:50;;;;;;;12.00;7.93;;;;;;;9.42;100.00;99139.69;5113689;28;20669;-73
2023/10/06 06:35:25;;;;;;;17.70;8.30;;;;;;;9.55;100.00;99136.38;5114283;28;20213;-73
2023/10/06 06:37:59;;;;;;;15.93;8.90;;;;;;;9.74;100.00;99139.25;5114295;28;20230;-73
2023/10/06 06:40:28;;;;;;;15.07;9.20;;;;;;;9.62;100.00;99139.94;5113835;28;20218;-73
2023/10/06 06:42:55;;;;;;;15.27;8.23;;;;;;;9.68;100.00;99139.19;5113743;28;20209;-73
2023/10/06 06:45:24;;;;;;;12.50;8.63;;;;;;;9.69;100.00;99136.34;5113645;28;20206;-73
2023/10/06 06:47:51;;;;;;;13.13;8.73;;;;;;;9.71;100.00;99128.19;5113431;28;20222;-73
2023/10/06 06:50:18;;;;;;;12.40;8.20;;;;;;;9.91;100.00;99145.19;5113782;28;20210;-73
2023/10/06 06:52:45;;;;;;;11.73;8.57;;;;;;;9.75;100.00;99132.13;5113884;28;20258;-73
2023/10/06 06:55:13;;;;;;;9.20;7.80;;;;;;;9.59;100.00;99132.34;5113711;28;20674;-73
2023/10/06 06:57:44;;;;;;;13.30;7.60;;;;;;;9.68;100.00;99131.25;5113848;28;20250;-73
2023/10/06 07:00:16;;;;;;;10.03;7.57;;;;;;;9.83;100.00;99132.00;5113633;28;20203;-73
2023/10/06 07:02:47;;;;;;;10.77;7.63;;;;;;;9.83;100.00;99129.34;5113988;28;20183;-73
2023/10/06 07:05:14;;;;;;;10.93;7.10;;;;;;;9.96;100.00;99132.16;5113955;28;20183;-73
2023/10/06 07:07:43;;;;;;;10.40;7.40;;;;;;;9.97;100.00;99128.47;5113502;28;20689;-73
2023/10/06 07:10:12;;;;;;;11.80;7.40;;;;;;;10.09;100.00;99127.00;5114477;28;20191;-73
2023/10/06 07:12:38;;;;;;;10.33;7.40;;;;;;;10.21;100.00;99130.78;5114104;28;20249;-73
2023/10/06 07:15:09;;;;;;;9.40;7.37;;;;;;;10.27;100.00;99130.03;5113502;28;20571;-73
2023/10/06 07:17:36;;;;;;;7.63;6.80;;;;;;;10.17;100.00;99127.69;5113156;28;20223;-73
2023/10/06 07:20:04;;;;;;;10.97;6.90;;;;;;;10.35;100.00;99124.56;5113742;28;20268;-73
2023/10/06 07:22:31;;;;;;;8.80;7.07;;;;;;;10.44;100.00;99134.06;5113722;28;20210;-73
2023/10/06 07:24:58;;;;;;;11.70;7.07;;;;;;;10.39;100.00;99131.97;5113560;28;20685;-73
2023/10/06 07:27:25;;;;;;;12.80;7.10;;;;;;;10.45;100.00;99130.41;5113696;28;20234;-73
2023/10/06 07:29:55;;;;;;;8.40;6.40;;;;;;;10.52;100.00;99129.44;5113336;28;20733;-73
2023/10/06 07:32:21;;;;;;;10.57;6.83;;;;;;;10.61;100.00;99135.41;5113889;28;20196;-73
2023/10/06 07:34:48;;;;;;;11.20;7.27;;;;;;;10.63;100.00;99130.72;5113351;28;20206;-73
2023/10/06 07:37:15;;;;;;;10.90;7.00;;;;;;;10.74;100.00;99140.84;5112942;28;20615;-73
2023/10/06 07:39:41;;;;;;;12.27;6.40;;;;;;;11.03;100.00;99148.59;5113482;28;20685;-73
2023/10/06 07:42:08;;;;;;;10.50;6.67;;;;;;;10.85;100.00;99146.44;5113474;28;20232;-73
2023/10/06 07:44:34;;;;;;;7.73;5.63;;;;;;;10.91;100.00;99143.00;5112956;28;20568;-73
2023/10/06 07:47:00;;;;;;;9.40;6.30;;;;;;;11.03;100.00;99135.31;5113315;28;20306;-73
2023/10/06 07:49:30;;;;;;;8.43;5.90;;;;;;;11.06;100.00;99148.22;5113106;28;20725;-73
2023/10/06 07:51:56;;;;;;;11.03;6.63;;;;;;;11.11;100.00;99140.47;5113692;28;20294;-73
2023/10/06 07:54:23;;;;;;;11.83;6.40;;;;;;;11.10;100.00;99142.31;5113350;28;20211;-73
2023/10/06 07:56:50;;;;;;;9.43;6.50;;;;;;;11.12;100.00;99141.31;5113662;28;20590;-73
2023/10/06 07:59:16;;;;;;;11.83;6.50;;;;;;;11.29;100.00;99143.44;5117014;28;20219;-73
2023/10/06 08:01:42;;;;;;;10.53;6.40;;;;;;;11.50;100.00;99145.19;5116977;28;20294;-73
2023/10/06 08:04:09;;;;;;;8.53;6.03;;;;;;;11.40;100.00;99142.06;5116685;28;20689;-73
2023/10/06 08:06:35;;;;;;;11.13;6.47;;;;;;;11.42;100.00;99140.00;5116592;28;20219;-73
2023/10/06 08:09:05;;;;;;;9.60;6.63;;;;;;;11.57;100.00;99138.06;5117112;28;20223;-73
2023/10/06 08:11:34;;;;;;;11.77;6.63;;;;;;;11.70;100.00;99141.59;5116978;28;20211;-73
2023/10/06 08:14:03;;;;;;;12.77;6.80;;;;;;;11.89;100.00;99138.19;5116550;28;20681;-73
2023/10/06 08:16:30;;;;;;;13.43;6.80;;;;;;;11.91;100.00;99136.16;5116454;28;20218;-73
2023/10/06 08:18:57;;;;;;;10.77;6.73;;;;;;;11.89;100.00;99130.19;5116844;28;20319;-73
2023/10/06 08:21:23;;;;;;;10.00;6.80;;;;;;;12.11;100.00;99129.00;5116729;28;20210;-73
2023/10/06 08:23:50;;;;;;;11.73;7.00;;;;;;;12.16;100.00;99128.41;5116709;28;20208;-73
2023/10/06 08:26:16;;;;;;;11.20;6.93;;;;;;;12.16;100.00;99126.56;5116346;28;20633;-73
2023/10/06 08:28:43;;;;;;;10.23;6.53;;;;;;;12.22;100.00;99123.09;5116458;28;20582;-73
2023/10/06 08:31:16;;;;;;;7.10;6.03;;;;;;;12.38;100.00;99138.69;5116451;28;20286;-73
2023/10/06 08:33:43;;;;;;;12.30;6.90;;;;;;;12.31;100.00;99140.53;5116460;28;20199;-73
2023/10/06 08:36:10;;;;;;;11.43;7.00;;;;;;;12.47;100.00;99126.78;5116499;28;20200;-73
2023/10/06 08:38:37;;;;;;;12.77;6.10;;;;;;;12.61;100.00;99130.28;5116020;28;20220;-73
2023/10/06 08:41:05;;;;;;;12.33;6.63;;;;;;;12.69;100.00;99125.56;5116263;28;20207;-73
2023/10/06 08:43:32;;;;;;;10.20;6.87;;;;;;;12.75;100.00;99130.06;5116280;28;20235;-73
2023/10/06 08:45:59;;;;;;;9.07;6.63;;;;;;;12.81;100.00;99128.41;5116628;28;20226;-73
2023/10/06 08:48:31;;;;;;;11.60;6.67;;;;;;;12.99;100.00;99142.81;5116018;28;20716;-73
2023/10/06 08:51:03;;;;;;;12.40;6.70;;;;;;;13.08;100.00;99138.91;5116529;28;20194;-73
2023/10/06 08:53:31;;;;;;;10.90;6.67;;;;;;;13.17;100.00;99145.66;5117680;28;20194;-73
2023/10/06 08:55:58;;;;;;;14.10;7.23;;;;;;;13.38;100.00;99141.91;5117679;28;20207;-73
2023/10/06 08:58:26;;;;;;;13.33;7.40;;;;;;;13.60;100.00;99141.41;5117773;28;20235;-73
2023/10/06 09:00:55;;;;;;;12.80;7.43;;;;;;;13.82;100.00;99134.72;5119219;28;20704;-73
2023/10/06 09:03:22;;;;;;;11.03;6.63;;;;;;;13.70;100.00;99125.72;5118711;28;20245;-73
2023/10/06 09:05:50;;;;;;;15.97;7.27;;;;;;;13.78;100.00;99127.31;5116848;28;20599;-73
2023/10/06 09:08:17;;;;;;;11.33;7.20;;;;;;;13.90;100.00;99131.81;5116630;28;20238;-73
2023/10/06 09:10:51;;;;;;;11.23;7.30;;;;;;;14.22;100.00;99121.97;5115724;28;20577;-72
2023/10/06 09:13:19;;;;;;;12.03;6.80;;;;;;;14.22;100.00;99127.31;5115479;28;20229;-72
2023/10/06 09:16:06;;;;;;;12.90;7.00;;;;;;;14.48;100.00;99132.47;5118189;28;20211;-73
2023/10/06 09:18:34;;;;;;;9.70;7.27;;;;;;;14.56;100.00;99133.03;5115584;28;20586;-73
2023/10/06 09:21:19;;;;;;;12.40;7.40;;;;;;;14.54;100.00;99135.13;5115957;27;20230;-73
2023/10/06 09:23:46;;;;;;;12.30;6.30;;;;;;;14.62;100.00;99136.69;5115076;27;20293;-73
2023/10/06 09:26:15;;;;;;;14.23;6.93;;;;;;;14.72;100.00;99137.84;5115341;28;20203;-73
2023/10/06 09:28:51;;;;;;;12.03;6.47;;;;;;;14.75;100.00;99134.72;5115275;28;20230;-73
2023/10/06 09:31:18;;;;;;;10.73;6.63;;;;;;;14.79;100.00;99122.53;5115051;27;20207;-73
2023/10/06 09:33:48;;;;;;;9.47;6.77;;;;;;;14.75;100.00;99117.84;5115412;28;20290;-73
2023/10/06 09:36:17;;;;;;;14.77;6.93;;;;;;;14.94;100.00;99120.34;5115716;28;20183;-73
2023/10/06 09:38:45;;;;;;;10.20;6.53;;;;;;;14.97;100.00;99113.72;5115322;28;20227;-73
2023/10/06 09:41:12;;;;;;;11.57;6.47;;;;;;;15.07;100.00;99116.72;5115312;28;20252;-73
2023/10/06 09:43:39;;;;;;;11.70;6.33;;;;;;;15.17;100.00;99114.34;5114763;28;20662;-73
2023/10/06 09:46:13;;;;;;;11.17;6.23;;;;;;;15.22;100.00;99112.63;5115293;27;20206;-73
2023/10/06 09:48:42;;;;;;;9.90;6.80;;;;;;;15.44;100.00;99099.63;5114919;28;20232;-73
2023/10/06 09:51:11;;;;;;;13.27;6.40;;;;;;;15.72;100.00;99102.56;5114377;28;20239;-73
2023/10/06 09:53:40;;;;;;;8.73;6.30;;;;;;;15.54;100.00;99103.41;5114940;28;20214;-73
2023/10/06 09:56:10;;;;;;;12.13;6.40;;;;;;;15.72;100.00;99099.88;5114830;28;20203;-73
2023/10/06 09:58:38;;;;;;;10.27;5.97;;;;;;;16.02;100.00;99092.69;5114495;28;20222;-73
2023/10/06 10:01:05;;;;;;;9.80;6.50;;;;;;;16.18;100.00;99092.84;5114613;28;20209;-73
2023/10/06 10:03:34;;;;;;;8.30;6.40;;;;;;;16.21;100.00;99091.56;5114662;28;20203;-73
2023/10/06 10:06:04;;;;;;;10.90;6.17;;;;;;;16.15;100.00;99082.56;5114932;28;20291;-73
2023/10/06 10:08:32;;;;;;;9.83;5.97;;;;;;;16.21;100.00;99078.97;5114129;28;20231;-73
2023/10/06 10:11:02;;;;;;;10.20;6.07;;;;;;;16.46;100.00;99076.94;5114591;28;20217;-73
2023/10/06 10:13:50;;;;;;;10.43;6.00;;;;;;;16.37;100.00;99080.16;5114321;28;20207;-73
2023/10/06 10:16:53;;;;;;;8.00;5.40;;;;;;;16.26;100.00;99091.69;5114048;28;20222;-73
2023/10/06 10:19:25;;;;;;;9.20;5.90;;;;;;;16.46;100.00;99086.88;5114182;28;20226;-73
2023/10/06 10:21:55;;;;;;;11.43;5.83;;;;;;;16.79;100.00;99087.91;5113825;28;20646;-73
2023/10/06 10:24:22;;;;;;;11.73;5.87;;;;;;;16.63;100.00;99087.81;5112837;28;20677;-73
2023/10/06 10:26:50;;;;;;;14.00;6.50;;;;;;;16.57;100.00;99091.41;5114144;28;20202;-73
2023/10/06 10:29:17;;;;;;;10.97;5.90;;;;;;;16.69;100.00;99087.69;5113851;28;20723;-73
2023/10/06 10:32:03;;;;;;;10.13;5.73;;;;;;;16.64;100.00;99084.09;5113986;28;20207;-73
2023/10/06 10:34:34;;;;;;;9.17;6.40;;;;;;;16.64;100.00;99079.50;5114123;28;20188;-73
2023/10/06 10:37:05;;;;;;;8.03;5.83;;;;;;;17.03;100.00;99075.31;5114207;28;20199;-73
2023/10/06 10:39:47;;;;;;;12.00;6.50;;;;;;;17.14;100.00;99080.66;5113819;28;20226;-73
2023/10/06 10:42:17;;;;;;;11.27;5.80;;;;;;;17.26;100.00;99065.34;5114034;28;20187;-73
2023/10/06 10:44:44;;;;;;;12.17;6.40;;;;;;;17.57;100.00;99058.75;5114318;28;20207;-73
2023/10/06 10:47:10;;;;;;;12.83;6.20;;;;;;;17.64;96.64;99065.59;5113448;28;20207;-73
2023/10/06 10:49:38;;;;;;;11.97;6.03;;;;;;;17.74;97.79;99060.41;5113330;28;20203;-73
2023/10/06 10:52:09;;;;;;;11.30;6.10;;;;;;;17.74;94.32;99049.66;5113862;28;20248;-73
2023/10/06 10:54:39;;;;;;;12.83;7.37;;;;;;;17.74;95.19;99048.84;5113492;27;20240;-73
2023/10/06 10:57:13;;;;;;;11.13;8.27;;;;;;;17.90;95.76;99042.69;5113753;28;20622;-73
2023/10/06 11:00:11;;;;;;;8.95;6.18;;;;;;;17.99;95.28;99043.91;5112088;28;20465;-73
2023/10/06 11:02:42;;;;;;;10.57;5.83;;;;;;;17.94;95.52;99039.28;5113949;28;20187;-73
2023/10/06 11:05:09;;;;;;;8.90;5.83;;;;;;;18.04;94.09;99035.94;5113656;28;20203;-73
2023/10/06 11:07:35;;;;;;;8.87;6.03;;;;;;;18.26;93.43;99020.72;5113686;28;20227;-73
2023/10/06 11:10:03;;;;;;;14.77;6.17;;;;;;;18.00;94.04;99024.06;5113577;28;20684;-73
2023/10/06 11:12:30;;;;;;;10.77;6.03;;;;;;;18.00;95.36;99019.47;5113732;28;20384;-73
2023/10/06 11:15:13;;;;;;;8.10;5.50;;;;;;;18.00;92.31;99014.09;5113494;28;20252;-73
2023/10/06 11:17:41;;;;;;;8.10;5.83;;;;;;;17.88;87.30;99017.91;5113490;28;20223;-73
2023/10/06 11:20:13;;;;;;;8.20;5.30;;;;;;;17.62;88.30;99005.88;5113457;28;20207;-73
2023/10/06 11:23:00;;;;;;;8.67;5.80;;;;;;;17.68;88.25;99009.44;5113632;28;20183;-73
2023/10/06 11:25:32;;;;;;;11.27;6.73;;;;;;;17.92;86.57;99011.78;5113014;28;20237;-73
2023/10/06 11:28:09;;;;;;;7.73;5.80;;;;;;;18.04;84.86;98995.56;5113017;28;20226;-73
2023/10/06 11:30:38;;;;;;;10.90;5.83;;;;;;;18.17;83.09;98998.78;5114102;28;20206;-73
2023/10/06 11:33:08;;;;;;;10.97;5.70;;;;;;;18.05;83.03;98989.94;5115766;28;20234;-73